Аэропорт: Угольный. Анадырь

ICAO: UHMA

METAR:
2018/11/21 18:00
UHMA 211800Z 02003MPS 7000 FEW002 M24/M26 Q1016 R01/////// NOSIG RMK END R01/01003MPS QBB070 QFE758/1011
METAR:
2018/11/21 18:21
TAF UHMA 211655Z 2118/2218 36007MPS 5000 HZ SCT020 
      TEMPO 2118/2218 31003MPS 2000 HZ BKN005